createdAt,value
2023-05-10T00:00:47.465Z,33.33
2023-05-10T00:01:47.470Z,33.35
2023-05-10T00:02:47.562Z,33.33
2023-05-10T00:03:47.546Z,33.35
2023-05-10T00:04:47.524Z,33.37
2023-05-10T00:05:47.538Z,33.36
2023-05-10T00:06:47.530Z,33.30
2023-05-10T00:07:47.542Z,33.35
2023-05-10T00:08:47.546Z,33.33
2023-05-10T00:09:47.537Z,33.31
2023-05-10T00:10:47.554Z,33.34
2023-05-10T00:11:47.571Z,33.34
2023-05-10T00:12:47.620Z,33.33
2023-05-10T00:13:47.581Z,33.32
2023-05-10T00:14:47.611Z,33.34
2023-05-10T00:15:47.616Z,33.34
2023-05-10T00:16:47.670Z,33.34
2023-05-10T00:17:47.664Z,33.35
2023-05-10T00:18:47.641Z,33.37
2023-05-10T00:19:47.644Z,33.38
2023-05-10T00:20:47.692Z,33.37
2023-05-10T00:21:47.716Z,33.32
2023-05-10T00:22:47.774Z,33.37
2023-05-10T00:23:47.768Z,33.35
2023-05-10T00:24:47.796Z,33.28
2023-05-10T00:25:47.839Z,33.35
2023-05-10T00:26:47.873Z,33.38
2023-05-10T00:27:47.928Z,33.31
2023-05-10T00:28:47.947Z,33.31
2023-05-10T00:29:47.984Z,33.37
2023-05-10T00:30:48.028Z,33.29
2023-05-10T00:31:48.115Z,33.37
2023-05-10T00:32:48.127Z,33.32
2023-05-10T00:33:48.147Z,33.37
2023-05-10T00:34:48.161Z,33.32
2023-05-10T00:35:48.202Z,33.31
2023-05-10T00:36:48.233Z,33.31
2023-05-10T00:37:48.269Z,33.35
2023-05-10T00:38:48.366Z,33.31
2023-05-10T00:39:48.313Z,33.29
2023-05-10T00:40:48.361Z,33.35
2023-05-10T00:41:48.389Z,33.34
2023-05-10T00:42:48.413Z,33.32
2023-05-10T00:43:48.448Z,33.35
2023-05-10T00:44:48.482Z,33.28
2023-05-10T00:45:48.544Z,33.34
2023-05-10T00:46:48.561Z,33.28
2023-05-10T00:47:48.616Z,33.31
2023-05-10T00:48:48.589Z,33.31
2023-05-10T00:49:48.573Z,33.32
2023-05-10T00:50:48.584Z,33.32
2023-05-10T00:51:48.597Z,33.27
2023-05-10T00:52:48.605Z,33.28
2023-05-10T00:53:48.647Z,33.28
2023-05-10T00:54:48.665Z,33.28
2023-05-10T00:55:48.692Z,33.28
2023-05-10T00:56:48.644Z,33.28
2023-05-10T00:57:48.650Z,33.28
2023-05-10T00:58:48.674Z,33.29
2023-05-10T00:59:48.676Z,33.32
2023-05-10T01:00:48.694Z,33.25
2023-05-10T01:01:48.788Z,33.29
2023-05-10T01:02:48.821Z,33.27
2023-05-10T01:03:48.731Z,33.31
2023-05-10T01:04:48.776Z,33.27
2023-05-10T01:05:48.759Z,33.28
2023-05-10T01:06:48.775Z,33.29
2023-05-10T01:07:48.791Z,33.32
2023-05-10T01:08:48.832Z,33.31
2023-05-10T01:09:48.853Z,33.26
2023-05-10T01:10:48.913Z,33.29
2023-05-10T01:11:48.929Z,33.26
2023-05-10T01:12:48.986Z,33.31
2023-05-10T01:13:49.013Z,33.26
2023-05-10T01:14:49.050Z,33.29
2023-05-10T01:15:49.106Z,33.25
2023-05-10T01:16:49.136Z,33.31
2023-05-10T01:17:49.231Z,33.31
2023-05-10T01:18:49.200Z,33.26
2023-05-10T01:19:49.230Z,33.28
2023-05-10T01:20:49.268Z,33.28
2023-05-10T01:21:49.319Z,33.25
2023-05-10T01:22:49.381Z,33.29
2023-05-10T01:23:49.393Z,33.29
2023-05-10T01:24:49.427Z,33.29
2023-05-10T01:25:49.463Z,33.29
2023-05-10T01:26:49.512Z,33.29
2023-05-10T01:27:49.528Z,33.26
2023-05-10T01:28:49.599Z,33.28
2023-05-10T01:29:55.726Z,33.33
2023-05-10T01:30:50.621Z,33.30
2023-05-10T01:31:49.729Z,33.30
2023-05-10T01:32:49.685Z,33.25
2023-05-10T01:33:49.655Z,33.29
2023-05-10T01:34:49.667Z,33.26
2023-05-10T01:35:49.738Z,33.29
2023-05-10T01:36:49.701Z,33.25
2023-05-10T01:37:49.698Z,33.29
2023-05-10T01:38:49.711Z,33.25
2023-05-10T01:39:49.709Z,33.26
2023-05-10T01:40:49.732Z,33.26
2023-05-10T01:41:49.738Z,33.25
2023-05-10T01:42:49.769Z,33.27
2023-05-10T01:43:49.749Z,33.29
2023-05-10T01:44:49.783Z,33.30
2023-05-10T01:45:49.776Z,33.25
2023-05-10T01:46:49.794Z,33.27
2023-05-10T01:47:49.820Z,33.26
2023-05-10T01:48:49.795Z,33.29
2023-05-10T01:49:49.791Z,33.28
2023-05-10T01:50:49.794Z,33.27
2023-05-10T01:51:49.827Z,33.29
2023-05-10T01:52:49.821Z,33.27
2023-05-10T01:53:49.832Z,33.26
2023-05-10T01:54:49.843Z,33.29
2023-05-10T01:55:49.855Z,33.26
2023-05-10T01:56:49.867Z,33.30
2023-05-10T01:57:49.849Z,33.25
2023-05-10T01:58:49.873Z,33.25
2023-05-10T01:59:49.896Z,33.22
2023-05-10T02:00:49.995Z,33.27
2023-05-10T02:01:49.971Z,33.26
2023-05-10T02:02:50.078Z,33.27
2023-05-10T02:03:50.139Z,33.23
2023-05-10T02:04:50.097Z,33.26
2023-05-10T02:05:50.140Z,33.25
2023-05-10T02:06:50.162Z,33.23
2023-05-10T02:07:50.239Z,33.25
2023-05-10T02:08:50.264Z,33.23
2023-05-10T02:09:50.298Z,33.26
2023-05-10T02:10:50.331Z,33.24
2023-05-10T02:11:50.393Z,33.25
2023-05-10T02:12:50.531Z,33.26
2023-05-10T02:13:50.476Z,33.20
2023-05-10T02:14:50.512Z,33.24
2023-05-10T02:15:50.596Z,33.24
2023-05-10T02:16:50.666Z,33.20
2023-05-10T02:17:50.796Z,33.27
2023-05-10T02:18:50.720Z,33.25
2023-05-10T02:19:50.761Z,33.19
2023-05-10T02:20:50.779Z,33.27
2023-05-10T02:21:50.824Z,33.24
2023-05-10T02:22:50.872Z,33.23
2023-05-10T02:23:50.940Z,33.29
2023-05-10T02:24:50.927Z,33.25
2023-05-10T02:25:50.928Z,33.26
2023-05-10T02:26:50.932Z,33.26
2023-05-10T02:27:50.947Z,33.24
2023-05-10T02:28:50.949Z,33.26
2023-05-10T02:29:50.982Z,33.30
2023-05-10T02:30:50.965Z,33.30
2023-05-10T02:31:51.017Z,33.30
2023-05-10T02:32:51.036Z,33.26
2023-05-10T02:33:51.024Z,33.28
2023-05-10T02:34:51.057Z,33.30
2023-05-10T02:35:51.014Z,33.26
2023-05-10T02:36:51.045Z,33.27
2023-05-10T02:37:51.048Z,33.27
2023-05-10T02:38:51.061Z,33.28
2023-05-10T02:39:51.075Z,33.27
2023-05-10T02:40:51.080Z,33.27
2023-05-10T02:41:51.079Z,33.27
2023-05-10T02:42:51.097Z,33.28
2023-05-10T02:43:51.112Z,33.32
2023-05-10T02:44:51.105Z,33.26
2023-05-10T02:45:51.169Z,33.30
2023-05-10T02:46:51.116Z,33.28
2023-05-10T02:47:51.132Z,33.30
2023-05-10T02:48:51.125Z,33.27
2023-05-10T02:49:51.164Z,33.28
2023-05-10T02:50:51.150Z,33.28
2023-05-10T02:51:51.154Z,33.30
2023-05-10T02:52:51.157Z,33.34
2023-05-10T02:53:51.182Z,33.31
2023-05-10T02:54:51.183Z,33.27
2023-05-10T02:55:51.198Z,33.33
2023-05-10T02:56:51.197Z,33.30
2023-05-10T02:57:51.204Z,33.30
2023-05-10T02:58:51.236Z,33.34
2023-05-10T02:59:51.224Z,33.34
2023-05-10T03:00:51.275Z,33.31
2023-05-10T03:01:51.364Z,33.32
2023-05-10T03:02:51.387Z,33.28
2023-05-10T03:03:51.376Z,33.34
2023-05-10T03:04:51.480Z,33.34
2023-05-10T03:05:51.417Z,33.36
2023-05-10T03:06:51.611Z,33.34
2023-05-10T03:07:51.418Z,33.36
2023-05-10T03:08:51.398Z,33.31
2023-05-10T03:09:51.395Z,33.34
2023-05-10T03:10:51.408Z,33.37
2023-05-10T03:11:51.404Z,33.35
2023-05-10T03:12:51.454Z,33.38
2023-05-10T03:13:51.436Z,33.38
2023-05-10T03:14:51.449Z,33.33
2023-05-10T03:15:51.456Z,33.34
2023-05-10T03:16:51.436Z,33.38
2023-05-10T03:17:51.496Z,33.32
2023-05-10T03:18:51.517Z,33.36
2023-05-10T03:19:51.589Z,33.32
2023-05-10T03:20:51.611Z,33.38
2023-05-10T03:21:51.654Z,33.33
2023-05-10T03:22:51.681Z,33.35
2023-05-10T03:23:51.737Z,33.36
2023-05-10T03:24:51.783Z,33.38
2023-05-10T03:25:51.788Z,33.38
2023-05-10T03:26:51.779Z,33.41
2023-05-10T03:27:51.788Z,33.36
2023-05-10T03:28:51.798Z,33.38
2023-05-10T03:29:51.801Z,33.36
2023-05-10T03:30:51.802Z,33.37
2023-05-10T03:33:10.910Z,33.43
2023-05-10T03:34:10.888Z,33.40
2023-05-10T03:35:10.890Z,33.40
2023-05-10T03:36:10.910Z,33.39
2023-05-10T03:37:10.897Z,33.45
2023-05-10T03:38:10.889Z,33.41
2023-05-10T03:39:10.883Z,33.43
2023-05-10T03:40:10.872Z,33.42
2023-05-10T03:41:10.873Z,33.42
2023-05-10T03:42:10.912Z,33.33
2023-05-10T03:43:10.899Z,33.42
2023-05-10T03:44:10.887Z,33.41
2023-05-10T03:45:10.915Z,33.43
2023-05-10T03:46:10.983Z,33.43
2023-05-10T03:47:10.908Z,33.39
2023-05-10T03:48:10.986Z,33.46
2023-05-10T03:49:10.907Z,33.46
2023-05-10T03:50:10.918Z,33.45
2023-05-10T03:51:10.915Z,33.49
2023-05-10T03:52:10.905Z,33.43
2023-05-10T03:53:10.897Z,33.49
2023-05-10T03:54:10.953Z,33.50
2023-05-10T03:55:10.884Z,33.42
2023-05-10T03:56:10.910Z,33.46
2023-05-10T03:57:10.880Z,33.45
2023-05-10T03:58:10.869Z,33.45
2023-05-10T03:59:10.878Z,33.47
2023-05-10T04:00:10.870Z,33.43
2023-05-10T04:01:10.859Z,33.44
2023-05-10T04:02:10.917Z,33.47
2023-05-10T04:03:10.894Z,33.46
2023-05-10T04:04:10.922Z,33.46
2023-05-10T04:05:10.830Z,33.49
2023-05-10T04:06:10.843Z,33.47
2023-05-10T04:07:10.829Z,33.47
2023-05-10T04:08:10.824Z,33.51
2023-05-10T04:09:10.827Z,33.44
2023-05-10T04:10:10.813Z,33.46
2023-05-10T04:11:10.806Z,33.47
2023-05-10T04:12:11.105Z,33.47
2023-05-10T04:13:10.816Z,33.49
2023-05-10T04:14:10.806Z,33.50
2023-05-10T04:15:10.842Z,33.49
2023-05-10T04:16:10.886Z,33.50
2023-05-10T04:17:10.960Z,33.51
2023-05-10T04:18:11.094Z,33.47
2023-05-10T04:19:11.070Z,33.53
2023-05-10T04:20:11.117Z,33.50
2023-05-10T04:21:11.189Z,33.53
2023-05-10T04:22:11.226Z,33.53
2023-05-10T04:23:11.326Z,33.51
2023-05-10T04:24:11.983Z,33.50
2023-05-10T04:25:11.365Z,33.49
2023-05-10T04:26:11.407Z,33.51
2023-05-10T04:27:11.472Z,33.51
2023-05-10T04:28:11.503Z,33.53
2023-05-10T04:29:11.508Z,33.51
2023-05-10T04:30:11.517Z,33.50
2023-05-10T04:31:11.556Z,33.56
2023-05-10T04:32:11.491Z,33.54
2023-05-10T04:33:11.495Z,33.53
2023-05-10T04:34:11.496Z,33.51
2023-05-10T04:35:11.494Z,33.56
2023-05-10T04:36:11.486Z,33.54
2023-05-10T04:37:11.484Z,33.53
2023-05-10T04:38:11.479Z,33.57
2023-05-10T04:39:11.486Z,33.57
2023-05-10T04:40:11.484Z,33.58
2023-05-10T04:41:11.511Z,33.56
2023-05-10T04:42:11.464Z,33.53
2023-05-10T04:43:11.466Z,33.56
2023-05-10T04:44:11.473Z,33.58
2023-05-10T04:45:11.444Z,33.62
2023-05-10T04:46:11.490Z,33.56
2023-05-10T04:47:12.785Z,33.60
2023-05-10T04:48:11.435Z,33.62
2023-05-10T04:49:11.465Z,33.58
2023-05-10T04:50:11.415Z,33.57
2023-05-10T04:51:11.412Z,33.56
2023-05-10T04:52:11.410Z,33.58
2023-05-10T04:53:11.410Z,33.58
2023-05-10T04:54:11.497Z,33.60
2023-05-10T04:55:11.431Z,33.56
2023-05-10T04:56:11.412Z,33.61
2023-05-10T04:57:11.390Z,33.57
2023-05-10T04:58:11.387Z,33.65
2023-05-10T04:59:11.398Z,33.65
2023-05-10T05:00:11.426Z,33.62
2023-05-10T05:01:11.528Z,33.65
2023-05-10T05:02:11.526Z,33.65
2023-05-10T05:03:11.668Z,33.62
2023-05-10T05:04:11.649Z,33.65
2023-05-10T05:05:11.698Z,33.62
2023-05-10T05:06:11.776Z,33.66
2023-05-10T05:07:11.789Z,33.62
2023-05-10T05:08:11.837Z,33.66
2023-05-10T05:09:11.880Z,33.65
2023-05-10T05:10:11.950Z,33.62
2023-05-10T05:11:11.984Z,33.65
2023-05-10T05:12:12.062Z,33.66
2023-05-10T05:13:12.101Z,33.66
2023-05-10T05:14:12.170Z,33.61
2023-05-10T05:15:12.211Z,33.64
2023-05-10T05:16:12.453Z,33.64
2023-05-10T05:17:12.347Z,33.62
2023-05-10T05:18:12.464Z,33.62
2023-05-10T05:19:12.456Z,33.71
2023-05-10T05:20:12.564Z,33.66
2023-05-10T05:21:12.573Z,33.63
2023-05-10T05:22:12.629Z,33.67
2023-05-10T05:23:12.693Z,33.69
2023-05-10T05:24:12.794Z,33.61
2023-05-10T05:25:12.829Z,33.69
2023-05-10T05:26:12.808Z,33.65
2023-05-10T05:27:12.810Z,33.65
2023-05-10T05:28:12.814Z,33.63
2023-05-10T05:29:12.872Z,33.64
2023-05-10T05:30:12.844Z,33.61
2023-05-10T05:31:13.074Z,33.65
2023-05-10T05:32:12.894Z,34.54
2023-05-10T05:33:12.841Z,34.24
2023-05-10T05:34:12.852Z,34.18
2023-05-10T05:35:12.809Z,34.73
2023-05-10T05:36:12.859Z,35.68
2023-05-10T05:37:12.924Z,35.74
2023-05-10T05:38:12.948Z,35.98
2023-05-10T05:39:13.003Z,36.08
2023-05-10T05:40:13.029Z,36.42
2023-05-10T05:41:13.085Z,36.39
2023-05-10T05:42:13.085Z,36.63
2023-05-10T05:43:13.156Z,36.43
2023-05-10T05:44:13.140Z,36.43
2023-05-10T05:45:13.171Z,36.40
2023-05-10T05:46:13.201Z,36.49
2023-05-10T05:47:13.195Z,36.44
2023-05-10T05:48:13.221Z,36.40
2023-05-10T05:49:13.231Z,36.66
2023-05-10T05:50:13.232Z,36.74
2023-05-10T05:51:13.222Z,36.50
2023-05-10T05:52:13.263Z,36.66
2023-05-10T05:53:13.261Z,36.49
2023-05-10T05:54:13.262Z,36.49
2023-05-10T05:55:13.259Z,36.63
2023-05-10T05:56:13.240Z,36.76
2023-05-10T05:57:13.231Z,36.88
2023-05-10T05:58:13.228Z,36.97
2023-05-10T05:59:13.208Z,37.17
2023-05-10T06:00:13.734Z,37.20
2023-05-10T06:01:13.216Z,37.35
2023-05-10T06:02:13.300Z,37.53
2023-05-10T06:03:13.319Z,37.68
2023-05-10T06:04:13.282Z,38.16
2023-05-10T06:05:13.180Z,38.34
2023-05-10T06:06:13.170Z,38.06
2023-05-10T06:07:13.177Z,38.39
2023-05-10T06:08:13.148Z,38.32
2023-05-10T06:09:13.157Z,38.37
2023-05-10T06:10:13.123Z,38.40
2023-05-10T06:11:13.120Z,38.38
2023-05-10T06:12:13.129Z,38.50
2023-05-10T06:13:13.152Z,38.59
2023-05-10T06:14:13.108Z,38.80
2023-05-10T06:15:13.134Z,38.75
2023-05-10T06:16:13.072Z,38.94
2023-05-10T06:17:13.057Z,38.95
2023-05-10T06:18:13.161Z,38.95
2023-05-10T06:19:13.032Z,39.02
2023-05-10T06:20:13.069Z,39.07
2023-05-10T06:21:13.096Z,39.17
2023-05-10T06:22:13.139Z,39.32
2023-05-10T06:23:13.167Z,39.39
2023-05-10T06:24:13.205Z,39.45
2023-05-10T06:25:13.262Z,39.39
2023-05-10T06:26:13.257Z,39.55
2023-05-10T06:27:14.138Z,39.48
2023-05-10T06:28:13.276Z,39.70
2023-05-10T06:29:13.237Z,39.98
2023-05-10T06:30:13.802Z,39.85
2023-05-10T06:31:13.265Z,39.84
2023-05-10T06:32:13.217Z,39.84
2023-05-10T06:33:13.198Z,40.02
2023-05-10T06:34:13.160Z,40.21
2023-05-10T06:35:13.152Z,40.43
2023-05-10T06:36:13.153Z,40.30
2023-05-10T06:37:13.139Z,40.22
2023-05-10T06:38:13.099Z,40.26
2023-05-10T06:39:13.075Z,40.32
2023-05-10T06:40:13.099Z,40.56
2023-05-10T06:41:13.040Z,41.07
2023-05-10T06:42:13.038Z,40.76
2023-05-10T06:43:13.012Z,40.77
2023-05-10T06:44:13.110Z,40.46
2023-05-10T06:45:12.971Z,40.55
2023-05-10T06:46:12.969Z,40.77
2023-05-10T06:47:12.921Z,40.59
2023-05-10T06:48:13.024Z,40.75
2023-05-10T06:49:12.920Z,40.87
2023-05-10T06:50:12.997Z,40.50
2023-05-10T06:51:12.898Z,40.26
2023-05-10T06:52:12.844Z,40.41
2023-05-10T06:53:12.877Z,40.14
2023-05-10T06:54:12.861Z,40.06
2023-05-10T06:55:12.810Z,40.05
2023-05-10T06:56:12.815Z,40.08
2023-05-10T06:57:23.262Z,40.01
2023-05-10T06:58:13.772Z,39.91
2023-05-10T06:59:12.796Z,39.88
2023-05-10T07:00:12.850Z,39.83
2023-05-10T07:01:12.792Z,39.75
2023-05-10T07:02:12.782Z,39.69
2023-05-10T07:03:12.864Z,39.71
2023-05-10T07:04:12.668Z,39.71
2023-05-10T07:05:12.654Z,39.47
2023-05-10T07:06:21.599Z,39.56
2023-05-10T07:07:13.651Z,39.57
2023-05-10T07:08:12.598Z,39.81
2023-05-10T07:09:12.600Z,39.71
2023-05-10T07:10:12.566Z,39.36
2023-05-10T07:11:12.539Z,39.47
2023-05-10T07:12:14.745Z,39.41
2023-05-10T07:13:12.681Z,39.64
2023-05-10T07:14:12.669Z,39.66
2023-05-10T07:15:13.228Z,39.66
2023-05-10T07:16:12.548Z,39.35
2023-05-10T07:17:12.540Z,39.38
2023-05-10T07:18:12.498Z,38.98
2023-05-10T07:19:13.402Z,39.20
2023-05-10T07:20:12.417Z,39.22
2023-05-10T07:21:12.399Z,39.63
2023-05-10T07:22:12.346Z,39.08
2023-05-10T07:23:13.167Z,38.86
2023-05-10T07:24:12.333Z,38.83
2023-05-10T07:25:12.367Z,38.70
2023-05-10T07:26:12.335Z,38.74
2023-05-10T07:27:12.298Z,38.72
2023-05-10T07:28:12.257Z,38.66
2023-05-10T07:29:12.227Z,38.56
2023-05-10T07:30:12.224Z,38.59
2023-05-10T07:31:12.215Z,38.60
2023-05-10T07:32:12.217Z,38.58
2023-05-10T07:33:12.266Z,38.47
2023-05-10T07:34:12.206Z,38.44
2023-05-10T07:35:12.178Z,38.65
2023-05-10T07:36:12.176Z,38.19
2023-05-10T07:37:12.164Z,38.06
2023-05-10T07:38:12.202Z,38.02
2023-05-10T07:39:16.258Z,37.96
2023-05-10T07:40:12.196Z,35.22
2023-05-10T07:41:12.106Z,33.81
2023-05-10T07:42:12.150Z,35.60
2023-05-10T07:43:12.133Z,35.21
2023-05-10T07:44:12.100Z,35.24
2023-05-10T07:45:12.110Z,35.39
2023-05-10T07:46:12.190Z,35.09
2023-05-10T07:47:12.131Z,35.64
2023-05-10T07:48:12.112Z,35.71
2023-05-10T07:49:12.116Z,34.91
2023-05-10T07:50:12.078Z,34.82
2023-05-10T07:51:12.085Z,35.24
2023-05-10T07:52:12.095Z,35.82
2023-05-10T07:53:12.113Z,36.29
2023-05-10T07:54:12.105Z,36.41
2023-05-10T07:55:12.077Z,36.49
2023-05-10T07:56:12.075Z,36.50
2023-05-10T07:57:12.110Z,36.61
2023-05-10T07:58:12.030Z,36.72
2023-05-10T07:59:12.880Z,36.70
2023-05-10T08:00:12.029Z,36.74
2023-05-10T08:01:12.028Z,36.60
2023-05-10T08:02:12.123Z,36.20
2023-05-10T08:03:12.302Z,36.05
2023-05-10T08:04:12.164Z,35.60
2023-05-10T08:05:12.208Z,35.49
2023-05-10T08:06:12.129Z,35.36
2023-05-10T08:07:12.110Z,35.49
2023-05-10T08:08:12.176Z,35.04
2023-05-10T08:09:12.109Z,34.96
2023-05-10T08:10:12.188Z,34.96
2023-05-10T08:11:12.085Z,35.08
2023-05-10T08:12:12.095Z,35.47
2023-05-10T08:13:12.085Z,36.12
2023-05-10T08:14:12.192Z,35.95
2023-05-10T08:15:13.198Z,35.73
2023-05-10T08:16:12.289Z,35.94
2023-05-10T08:17:12.327Z,35.87
2023-05-10T08:18:12.385Z,35.65
2023-05-10T08:19:12.415Z,35.80
2023-05-10T08:20:12.439Z,36.26
2023-05-10T08:21:12.496Z,36.15
2023-05-10T08:22:12.445Z,35.91
2023-05-10T08:23:12.439Z,36.34
2023-05-10T08:24:12.482Z,36.15
2023-05-10T08:25:12.474Z,35.95
2023-05-10T08:26:12.484Z,36.19
2023-05-10T08:27:12.490Z,36.07
2023-05-10T08:28:12.535Z,36.43
2023-05-10T08:29:12.533Z,36.00
2023-05-10T08:30:12.593Z,35.94
2023-05-10T08:31:12.612Z,36.27
2023-05-10T08:32:12.641Z,36.23
2023-05-10T08:33:12.650Z,36.21
2023-05-10T08:34:12.562Z,35.41
2023-05-10T08:35:12.634Z,35.42
2023-05-10T08:36:12.600Z,35.43
2023-05-10T08:37:12.636Z,35.72
2023-05-10T08:38:12.672Z,35.57
2023-05-10T08:39:22.862Z,35.35
2023-05-10T08:40:12.717Z,36.13
2023-05-10T08:41:12.723Z,36.19
2023-05-10T08:42:12.745Z,36.40
2023-05-10T08:43:12.726Z,35.65
2023-05-10T08:44:12.753Z,35.76
2023-05-10T08:45:12.757Z,35.96
2023-05-10T08:46:12.756Z,36.24
2023-05-10T08:47:12.822Z,37.28
2023-05-10T08:48:12.809Z,37.31
2023-05-10T08:49:12.717Z,37.57
2023-05-10T08:50:12.741Z,37.38
2023-05-10T08:51:12.725Z,37.68
2023-05-10T08:52:12.730Z,37.19
2023-05-10T08:53:12.761Z,37.03
2023-05-10T08:54:12.739Z,37.58
2023-05-10T08:55:12.827Z,37.59
2023-05-10T08:56:12.786Z,37.94
2023-05-10T08:57:12.772Z,37.73
2023-05-10T08:58:12.791Z,37.89
2023-05-10T08:59:12.781Z,37.92
2023-05-10T09:00:12.951Z,38.08
2023-05-10T09:01:12.960Z,38.33
2023-05-10T09:02:12.959Z,38.60
2023-05-10T09:03:12.959Z,38.38
2023-05-10T09:04:13.064Z,37.84
2023-05-10T09:05:13.022Z,38.17
2023-05-10T09:06:13.001Z,37.64
2023-05-10T09:07:12.992Z,37.97
2023-05-10T09:08:13.060Z,37.91
2023-05-10T09:09:13.045Z,37.41
2023-05-10T09:10:13.068Z,37.54
2023-05-10T09:11:13.058Z,37.34
2023-05-10T09:12:13.074Z,37.32
2023-05-10T09:13:13.107Z,37.48
2023-05-10T09:14:13.206Z,37.27
2023-05-10T09:15:13.214Z,37.43
2023-05-10T09:16:20.938Z,37.14
2023-05-10T09:17:14.259Z,37.36
2023-05-10T09:18:13.395Z,36.55
2023-05-10T09:19:13.390Z,36.81
2023-05-10T09:20:13.495Z,37.20
2023-05-10T09:21:13.297Z,37.22
2023-05-10T09:22:13.229Z,36.99
2023-05-10T09:23:13.250Z,36.59
2023-05-10T09:24:13.230Z,37.00
2023-05-10T09:25:13.245Z,36.80
2023-05-10T09:26:13.305Z,36.89
2023-05-10T09:27:13.363Z,37.14
2023-05-10T09:28:13.233Z,37.04
2023-05-10T09:29:14.669Z,36.77
2023-05-10T09:30:13.213Z,36.87
2023-05-10T09:31:13.334Z,36.51
2023-05-10T09:32:13.785Z,37.05
2023-05-10T09:33:13.243Z,37.49
2023-05-10T09:34:13.242Z,36.19
2023-05-10T09:35:13.253Z,37.27
2023-05-10T09:36:13.320Z,36.36
2023-05-10T09:37:13.274Z,37.31
2023-05-10T09:38:13.392Z,37.89
2023-05-10T09:39:13.359Z,37.41
2023-05-10T09:40:14.160Z,39.76
2023-05-10T09:41:13.446Z,39.36
2023-05-10T09:42:13.516Z,38.43
2023-05-10T09:43:13.501Z,37.58
2023-05-10T09:44:13.548Z,37.95
2023-05-10T09:45:13.628Z,38.31
2023-05-10T09:46:13.686Z,39.07
2023-05-10T09:47:13.615Z,38.97
2023-05-10T09:48:13.711Z,37.93
2023-05-10T09:49:13.796Z,39.13
2023-05-10T09:50:13.899Z,38.41
2023-05-10T09:51:13.897Z,37.43
2023-05-10T09:52:13.866Z,37.67
2023-05-10T09:53:13.873Z,37.34
2023-05-10T09:54:13.916Z,37.80
2023-05-10T09:55:14.083Z,38.14
2023-05-10T09:56:13.899Z,37.36
2023-05-10T09:57:14.214Z,37.37
2023-05-10T09:58:13.884Z,36.97
2023-05-10T09:59:13.871Z,37.18
2023-05-10T10:00:13.895Z,37.86
2023-05-10T10:01:13.938Z,37.81
2023-05-10T10:02:13.983Z,37.75
2023-05-10T10:03:13.881Z,37.71
2023-05-10T10:04:13.938Z,37.86
2023-05-10T10:05:14.010Z,37.67
2023-05-10T10:06:26.457Z,37.54
2023-05-10T10:07:14.951Z,37.50
2023-05-10T10:08:14.067Z,37.57
2023-05-10T10:09:13.936Z,37.92
2023-05-10T10:10:13.930Z,38.18
2023-05-10T10:11:13.959Z,38.25
2023-05-10T10:12:13.927Z,38.08
2023-05-10T10:13:13.950Z,38.13
2023-05-10T10:14:14.069Z,38.02
2023-05-10T10:15:16.507Z,38.08
2023-05-10T10:16:14.050Z,38.15
2023-05-10T10:17:13.944Z,38.64
2023-05-10T10:18:13.915Z,39.03
2023-05-10T10:19:13.907Z,38.90
2023-05-10T10:20:14.253Z,38.61
2023-05-10T10:21:13.922Z,38.29
2023-05-10T10:22:13.914Z,38.13
2023-05-10T10:23:15.831Z,37.77
2023-05-10T10:24:13.888Z,37.84
2023-05-10T10:25:13.938Z,37.39
2023-05-10T10:26:13.886Z,37.69
2023-05-10T10:27:13.892Z,36.51
2023-05-10T10:28:13.891Z,36.97
2023-05-10T10:29:13.918Z,37.52
2023-05-10T10:30:13.975Z,37.68
2023-05-10T10:31:13.879Z,37.75
2023-05-10T10:32:13.860Z,37.74
2023-05-10T10:33:27.243Z,37.82
2023-05-10T10:34:14.859Z,37.80
2023-05-10T10:35:13.844Z,37.83
2023-05-10T10:36:13.849Z,37.86
2023-05-10T10:37:13.854Z,37.86
2023-05-10T10:38:13.810Z,38.39
2023-05-10T10:39:13.853Z,38.23
2023-05-10T10:40:13.777Z,37.96
2023-05-10T10:41:13.779Z,37.79
2023-05-10T10:42:13.776Z,38.20
2023-05-10T10:43:13.847Z,38.05
2023-05-10T10:44:13.737Z,38.19
2023-05-10T10:45:13.899Z,38.07
2023-05-10T10:46:13.726Z,37.64
2023-05-10T10:47:13.715Z,37.95
2023-05-10T10:48:13.710Z,37.93
2023-05-10T10:49:13.724Z,37.94
2023-05-10T10:50:13.706Z,37.73
2023-05-10T10:51:13.660Z,37.73
2023-05-10T10:52:13.663Z,37.90
2023-05-10T10:53:13.674Z,37.85
2023-05-10T10:54:13.679Z,37.85
2023-05-10T10:55:13.634Z,37.70
2023-05-10T10:56:13.659Z,37.81
2023-05-10T10:57:13.599Z,37.61
2023-05-10T10:58:13.589Z,37.22
2023-05-10T10:59:13.576Z,36.98
2023-05-10T11:00:13.576Z,37.19
2023-05-10T11:01:13.633Z,37.15
2023-05-10T11:02:13.586Z,36.69
2023-05-10T11:03:13.633Z,36.90
2023-05-10T11:04:14.046Z,36.86
2023-05-10T11:05:13.718Z,36.91
2023-05-10T11:06:13.723Z,36.87
2023-05-10T11:07:13.759Z,36.81
2023-05-10T11:08:13.756Z,36.82
2023-05-10T11:09:13.725Z,35.94
2023-05-10T11:10:13.716Z,35.19
2023-05-10T11:11:13.725Z,36.12
2023-05-10T11:12:13.812Z,35.24
2023-05-10T11:13:13.704Z,36.11
2023-05-10T11:14:14.570Z,35.38
2023-05-10T11:15:13.692Z,35.93
2023-05-10T11:16:13.691Z,36.03
2023-05-10T11:17:13.739Z,36.11
2023-05-10T11:18:13.710Z,36.02
2023-05-10T11:19:13.799Z,35.56
2023-05-10T11:20:13.729Z,35.60
2023-05-10T11:21:14.052Z,35.71
2023-05-10T11:22:13.612Z,33.13
2023-05-10T11:23:13.674Z,34.89
2023-05-10T11:24:13.725Z,33.66
2023-05-10T11:25:13.628Z,35.27
2023-05-10T11:26:13.615Z,35.52
2023-05-10T11:27:14.229Z,35.72
2023-05-10T11:28:13.616Z,35.87
2023-05-10T11:29:13.622Z,36.02
2023-05-10T11:30:13.841Z,36.18
2023-05-10T11:31:13.733Z,36.35
2023-05-10T11:32:13.779Z,37.20
2023-05-10T11:33:13.731Z,37.12
2023-05-10T11:34:13.797Z,36.80
2023-05-10T11:35:13.765Z,36.86
2023-05-10T11:36:13.798Z,36.76
2023-05-10T11:37:13.818Z,36.71
2023-05-10T11:38:13.814Z,36.61
2023-05-10T11:39:13.851Z,36.58
2023-05-10T11:40:13.891Z,36.47
2023-05-10T11:41:13.888Z,36.43
2023-05-10T11:42:13.886Z,36.37
2023-05-10T11:43:13.877Z,36.30
2023-05-10T11:44:13.893Z,36.27
2023-05-10T11:45:13.893Z,36.22
2023-05-10T11:46:13.937Z,36.17
2023-05-10T11:47:13.919Z,36.12
2023-05-10T11:48:13.925Z,36.10
2023-05-10T11:49:13.884Z,36.05
2023-05-10T11:50:14.003Z,36.04
2023-05-10T11:51:13.881Z,36.04
2023-05-10T11:52:13.872Z,35.99
2023-05-10T11:53:13.953Z,36.02
2023-05-10T11:54:13.870Z,35.95
2023-05-10T11:55:13.879Z,35.99
2023-05-10T11:56:13.839Z,35.90
2023-05-10T11:57:13.992Z,35.95
2023-05-10T11:58:13.855Z,35.98
2023-05-10T11:59:13.840Z,35.86
2023-05-10T12:00:13.927Z,35.83
2023-05-10T12:01:13.849Z,35.81
2023-05-10T12:02:13.819Z,35.75
2023-05-10T12:03:13.978Z,35.78
2023-05-10T12:04:14.043Z,35.77
2023-05-10T12:05:13.815Z,35.71
2023-05-10T12:06:14.191Z,35.68
2023-05-10T12:07:13.828Z,35.61
2023-05-10T12:08:13.820Z,35.57
2023-05-10T12:09:13.791Z,35.55
2023-05-10T12:10:13.862Z,35.47
2023-05-10T12:11:13.826Z,35.48
2023-05-10T12:12:13.781Z,35.40
2023-05-10T12:13:13.763Z,35.38
2023-05-10T12:14:14.758Z,35.37
2023-05-10T12:15:13.932Z,35.33
2023-05-10T12:16:13.833Z,35.32
2023-05-10T12:17:13.767Z,35.29
2023-05-10T12:18:13.809Z,35.27
2023-05-10T12:19:13.799Z,35.25
2023-05-10T12:20:13.828Z,35.22
2023-05-10T12:21:13.809Z,35.22
2023-05-10T12:22:13.766Z,35.19
2023-05-10T12:23:13.793Z,35.16
2023-05-10T12:24:13.831Z,35.16
2023-05-10T12:25:13.805Z,35.15
2023-05-10T12:26:13.839Z,35.08
2023-05-10T12:27:13.909Z,35.08
2023-05-10T12:28:13.862Z,35.06
2023-05-10T12:29:13.878Z,35.06
2023-05-10T12:30:13.889Z,35.01
2023-05-10T12:31:13.945Z,35.05
2023-05-10T12:32:14.131Z,35.03
2023-05-10T12:33:14.023Z,35.00
2023-05-10T12:34:13.946Z,34.96
2023-05-10T12:35:13.963Z,34.96
2023-05-10T12:36:13.983Z,34.98
2023-05-10T12:37:14.001Z,34.92
2023-05-10T12:38:14.021Z,34.94
2023-05-10T12:39:14.041Z,34.88
2023-05-10T12:40:14.051Z,34.88
2023-05-10T12:41:14.139Z,34.91
2023-05-10T12:42:14.082Z,34.83
2023-05-10T12:43:14.095Z,34.86
2023-05-10T12:44:14.113Z,34.88
2023-05-10T12:45:14.120Z,34.79
2023-05-10T12:46:14.159Z,34.74
2023-05-10T12:47:14.134Z,34.81
2023-05-10T12:48:14.185Z,34.78
2023-05-10T12:49:14.248Z,34.73
2023-05-10T12:50:14.365Z,34.73
2023-05-10T12:51:14.276Z,34.73
2023-05-10T12:52:14.257Z,34.66
2023-05-10T12:53:14.260Z,34.72
2023-05-10T12:54:14.282Z,34.70